sensor_id;sensor_type;location;lat;lon;timestamp;P1;durP1;ratioP1;P2;durP2;ratioP2
41705;SDS011;27385;51.096;17.190;2023-04-03T00:01:44;7.90;;;0.90;;
41705;SDS011;27385;51.096;17.190;2023-04-03T00:04:15;12.40;;;1.70;;
41705;SDS011;27385;51.096;17.190;2023-04-03T00:06:46;10.10;;;1.20;;
41705;SDS011;27385;51.096;17.190;2023-04-03T00:09:17;11.40;;;1.30;;
41705;SDS011;27385;51.096;17.190;2023-04-03T00:11:49;10.50;;;2.30;;
41705;SDS011;27385;51.096;17.190;2023-04-03T00:14:19;10.30;;;1.00;;
41705;SDS011;27385;51.096;17.190;2023-04-03T00:16:50;9.30;;;1.00;;
41705;SDS011;27385;51.096;17.190;2023-04-03T00:19:22;11.00;;;1.10;;
41705;SDS011;27385;51.096;17.190;2023-04-03T00:21:53;9.80;;;1.30;;
41705;SDS011;27385;51.096;17.190;2023-04-03T00:24:24;15.10;;;1.00;;
41705;SDS011;27385;51.096;17.190;2023-04-03T00:26:55;12.60;;;1.30;;
41705;SDS011;27385;51.096;17.190;2023-04-03T00:29:26;6.10;;;0.90;;
41705;SDS011;27385;51.096;17.190;2023-04-03T00:31:57;13.40;;;1.30;;
41705;SDS011;27385;51.096;17.190;2023-04-03T00:34:28;8.80;;;1.50;;
41705;SDS011;27385;51.096;17.190;2023-04-03T00:36:59;8.30;;;1.10;;
41705;SDS011;27385;51.096;17.190;2023-04-03T00:39:30;10.70;;;1.10;;
41705;SDS011;27385;51.096;17.190;2023-04-03T00:42:01;12.80;;;1.60;;
41705;SDS011;27385;51.096;17.190;2023-04-03T00:47:42;11.40;;;1.30;;
41705;SDS011;27385;51.096;17.190;2023-04-03T00:50:13;9.70;;;1.50;;
41705;SDS011;27385;51.096;17.190;2023-04-03T00:52:44;14.90;;;1.50;;
41705;SDS011;27385;51.096;17.190;2023-04-03T00:55:16;12.60;;;1.30;;
41705;SDS011;27385;51.096;17.190;2023-04-03T00:57:48;12.90;;;1.40;;
41705;SDS011;27385;51.096;17.190;2023-04-03T01:00:21;12.30;;;1.50;;
41705;SDS011;27385;51.096;17.190;2023-04-03T01:02:54;11.40;;;1.20;;
41705;SDS011;27385;51.096;17.190;2023-04-03T01:05:25;10.10;;;1.40;;
41705;SDS011;27385;51.096;17.190;2023-04-03T01:07:56;9.60;;;1.00;;
41705;SDS011;27385;51.096;17.190;2023-04-03T01:10:28;8.30;;;0.80;;
41705;SDS011;27385;51.096;17.190;2023-04-03T01:12:59;10.10;;;1.00;;
41705;SDS011;27385;51.096;17.190;2023-04-03T01:15:45;12.40;;;1.30;;
41705;SDS011;27385;51.096;17.190;2023-04-03T01:18:16;6.30;;;1.00;;
41705;SDS011;27385;51.096;17.190;2023-04-03T01:23:54;12.40;;;1.40;;
41705;SDS011;27385;51.096;17.190;2023-04-03T01:26:34;14.00;;;1.10;;
41705;SDS011;27385;51.096;17.190;2023-04-03T01:29:05;8.90;;;0.90;;
41705;SDS011;27385;51.096;17.190;2023-04-03T01:31:45;10.90;;;1.80;;
41705;SDS011;27385;51.096;17.190;2023-04-03T01:34:20;10.70;;;1.30;;
41705;SDS011;27385;51.096;17.190;2023-04-03T01:36:51;6.50;;;1.50;;
41705;SDS011;27385;51.096;17.190;2023-04-03T01:39:23;8.50;;;1.20;;
41705;SDS011;27385;51.096;17.190;2023-04-03T01:41:54;5.60;;;1.10;;
41705;SDS011;27385;51.096;17.190;2023-04-03T01:44:27;8.60;;;0.90;;
41705;SDS011;27385;51.096;17.190;2023-04-03T01:46:57;12.70;;;0.90;;
41705;SDS011;27385;51.096;17.190;2023-04-03T01:49:28;7.60;;;0.80;;
41705;SDS011;27385;51.096;17.190;2023-04-03T01:51:59;11.50;;;1.00;;
41705;SDS011;27385;51.096;17.190;2023-04-03T01:54:30;10.00;;;1.00;;
41705;SDS011;27385;51.096;17.190;2023-04-03T01:57:01;7.30;;;0.90;;
41705;SDS011;27385;51.096;17.190;2023-04-03T01:59:32;8.30;;;1.20;;
41705;SDS011;27385;51.096;17.190;2023-04-03T02:02:03;8.10;;;1.00;;
41705;SDS011;27385;51.096;17.190;2023-04-03T02:04:34;13.40;;;1.10;;
41705;SDS011;27385;51.096;17.190;2023-04-03T02:07:05;7.00;;;1.40;;
41705;SDS011;27385;51.096;17.190;2023-04-03T02:09:36;9.00;;;1.10;;
41705;SDS011;27385;51.096;17.190;2023-04-03T02:12:07;18.00;;;1.60;;
41705;SDS011;27385;51.096;17.190;2023-04-03T02:14:38;9.60;;;0.90;;
41705;SDS011;27385;51.096;17.190;2023-04-03T02:17:09;7.00;;;0.80;;
41705;SDS011;27385;51.096;17.190;2023-04-03T02:19:40;11.20;;;1.30;;
41705;SDS011;27385;51.096;17.190;2023-04-03T02:22:11;10.80;;;0.90;;
41705;SDS011;27385;51.096;17.190;2023-04-03T02:24:41;4.70;;;0.50;;
41705;SDS011;27385;51.096;17.190;2023-04-03T02:27:12;7.20;;;0.90;;
41705;SDS011;27385;51.096;17.190;2023-04-03T02:29:43;12.60;;;1.40;;
41705;SDS011;27385;51.096;17.190;2023-04-03T02:32:14;10.90;;;1.00;;
41705;SDS011;27385;51.096;17.190;2023-04-03T02:34:45;7.80;;;1.30;;
41705;SDS011;27385;51.096;17.190;2023-04-03T02:37:16;12.40;;;1.60;;
41705;SDS011;27385;51.096;17.190;2023-04-03T02:39:47;9.90;;;1.00;;
41705;SDS011;27385;51.096;17.190;2023-04-03T02:42:19;7.50;;;1.00;;
41705;SDS011;27385;51.096;17.190;2023-04-03T02:44:50;10.20;;;1.20;;
41705;SDS011;27385;51.096;17.190;2023-04-03T02:47:21;9.70;;;1.20;;
41705;SDS011;27385;51.096;17.190;2023-04-03T02:49:51;7.10;;;0.80;;
41705;SDS011;27385;51.096;17.190;2023-04-03T02:52:23;9.60;;;1.30;;
41705;SDS011;27385;51.096;17.190;2023-04-03T02:54:54;17.50;;;1.30;;
41705;SDS011;27385;51.096;17.190;2023-04-03T02:57:24;11.20;;;1.40;;
41705;SDS011;27385;51.096;17.190;2023-04-03T02:59:55;12.90;;;1.60;;
41705;SDS011;27385;51.096;17.190;2023-04-03T03:02:26;8.10;;;0.80;;
41705;SDS011;27385;51.096;17.190;2023-04-03T03:04:57;8.30;;;1.50;;
41705;SDS011;27385;51.096;17.190;2023-04-03T03:07:28;10.70;;;1.40;;
41705;SDS011;27385;51.096;17.190;2023-04-03T03:09:59;10.70;;;0.90;;
41705;SDS011;27385;51.096;17.190;2023-04-03T03:12:30;11.50;;;1.90;;
41705;SDS011;27385;51.096;17.190;2023-04-03T03:15:01;13.50;;;1.20;;
41705;SDS011;27385;51.096;17.190;2023-04-03T03:17:32;9.80;;;1.10;;
41705;SDS011;27385;51.096;17.190;2023-04-03T03:20:04;11.90;;;1.20;;
41705;SDS011;27385;51.096;17.190;2023-04-03T03:22:36;6.40;;;0.90;;
41705;SDS011;27385;51.096;17.190;2023-04-03T03:25:08;10.20;;;1.00;;
41705;SDS011;27385;51.096;17.190;2023-04-03T03:27:39;14.80;;;1.80;;
41705;SDS011;27385;51.096;17.190;2023-04-03T03:30:10;10.40;;;1.30;;
41705;SDS011;27385;51.096;17.190;2023-04-03T03:32:42;8.10;;;1.10;;
41705;SDS011;27385;51.096;17.190;2023-04-03T03:35:13;11.10;;;1.30;;
41705;SDS011;27385;51.096;17.190;2023-04-03T03:37:44;9.70;;;1.20;;
41705;SDS011;27385;51.096;17.190;2023-04-03T03:40:15;5.90;;;1.00;;
41705;SDS011;27385;51.096;17.190;2023-04-03T03:42:46;9.70;;;0.90;;
41705;SDS011;27385;51.096;17.190;2023-04-03T03:45:17;7.90;;;0.90;;
41705;SDS011;27385;51.096;17.190;2023-04-03T03:47:48;7.80;;;1.10;;
41705;SDS011;27385;51.096;17.190;2023-04-03T03:50:19;16.90;;;1.10;;
41705;SDS011;27385;51.096;17.190;2023-04-03T03:52:50;13.80;;;1.50;;
41705;SDS011;27385;51.096;17.190;2023-04-03T03:55:21;13.00;;;1.90;;
41705;SDS011;27385;51.096;17.190;2023-04-03T03:57:52;11.90;;;1.20;;
41705;SDS011;27385;51.096;17.190;2023-04-03T04:00:23;11.10;;;1.60;;
41705;SDS011;27385;51.096;17.190;2023-04-03T04:02:54;14.50;;;1.10;;
41705;SDS011;27385;51.096;17.190;2023-04-03T04:05:25;15.20;;;1.20;;
41705;SDS011;27385;51.096;17.190;2023-04-03T04:07:56;8.30;;;2.10;;
41705;SDS011;27385;51.096;17.190;2023-04-03T04:10:27;11.70;;;1.40;;
41705;SDS011;27385;51.096;17.190;2023-04-03T04:12:58;15.10;;;1.60;;
41705;SDS011;27385;51.096;17.190;2023-04-03T04:15:29;10.50;;;1.80;;
41705;SDS011;27385;51.096;17.190;2023-04-03T04:18:00;6.20;;;1.20;;
41705;SDS011;27385;51.096;17.190;2023-04-03T04:20:31;10.40;;;1.50;;
41705;SDS011;27385;51.096;17.190;2023-04-03T04:23:02;11.90;;;1.40;;
41705;SDS011;27385;51.096;17.190;2023-04-03T04:25:32;12.10;;;1.40;;
41705;SDS011;27385;51.096;17.190;2023-04-03T04:28:04;11.70;;;1.40;;
41705;SDS011;27385;51.096;17.190;2023-04-03T04:30:35;11.50;;;1.80;;
41705;SDS011;27385;51.096;17.190;2023-04-03T04:33:06;12.20;;;1.90;;
41705;SDS011;27385;51.096;17.190;2023-04-03T04:35:37;9.50;;;1.30;;
41705;SDS011;27385;51.096;17.190;2023-04-03T04:38:10;11.10;;;1.90;;
41705;SDS011;27385;51.096;17.190;2023-04-03T04:40:41;11.50;;;1.40;;
41705;SDS011;27385;51.096;17.190;2023-04-03T04:43:12;17.20;;;1.90;;
41705;SDS011;27385;51.096;17.190;2023-04-03T04:45:43;13.60;;;1.40;;
41705;SDS011;27385;51.096;17.190;2023-04-03T04:48:14;6.40;;;1.40;;
41705;SDS011;27385;51.096;17.190;2023-04-03T04:50:44;9.30;;;2.60;;
41705;SDS011;27385;51.096;17.190;2023-04-03T04:53:16;12.00;;;1.60;;
41705;SDS011;27385;51.096;17.190;2023-04-03T04:55:47;9.60;;;1.20;;
41705;SDS011;27385;51.096;17.190;2023-04-03T04:58:18;8.80;;;1.20;;
41705;SDS011;27385;51.096;17.190;2023-04-03T05:00:49;9.50;;;1.50;;
41705;SDS011;27385;51.096;17.190;2023-04-03T05:03:26;6.60;;;1.00;;
41705;SDS011;27385;51.096;17.190;2023-04-03T05:05:57;10.90;;;1.50;;
41705;SDS011;27385;51.096;17.190;2023-04-03T05:08:28;10.50;;;1.00;;
41705;SDS011;27385;51.096;17.190;2023-04-03T05:10:59;8.80;;;1.00;;
41705;SDS011;27385;51.096;17.190;2023-04-03T05:13:30;6.10;;;1.00;;
41705;SDS011;27385;51.096;17.190;2023-04-03T05:16:01;6.20;;;0.80;;
41705;SDS011;27385;51.096;17.190;2023-04-03T05:18:33;12.70;;;1.50;;
41705;SDS011;27385;51.096;17.190;2023-04-03T05:21:04;7.00;;;1.40;;
41705;SDS011;27385;51.096;17.190;2023-04-03T05:23:35;12.70;;;0.80;;
41705;SDS011;27385;51.096;17.190;2023-04-03T05:26:06;10.20;;;1.20;;
41705;SDS011;27385;51.096;17.190;2023-04-03T05:28:36;7.40;;;1.00;;
41705;SDS011;27385;51.096;17.190;2023-04-03T05:31:08;9.10;;;1.10;;
41705;SDS011;27385;51.096;17.190;2023-04-03T05:33:39;10.40;;;0.80;;
41705;SDS011;27385;51.096;17.190;2023-04-03T05:36:10;6.50;;;1.20;;
41705;SDS011;27385;51.096;17.190;2023-04-03T05:38:41;19.60;;;1.50;;
41705;SDS011;27385;51.096;17.190;2023-04-03T05:41:12;7.50;;;1.00;;
41705;SDS011;27385;51.096;17.190;2023-04-03T05:43:43;8.10;;;1.40;;
41705;SDS011;27385;51.096;17.190;2023-04-03T05:46:15;5.50;;;1.00;;
41705;SDS011;27385;51.096;17.190;2023-04-03T05:48:48;7.10;;;0.90;;
41705;SDS011;27385;51.096;17.190;2023-04-03T05:51:20;14.50;;;1.30;;
41705;SDS011;27385;51.096;17.190;2023-04-03T05:53:54;8.00;;;1.20;;
41705;SDS011;27385;51.096;17.190;2023-04-03T05:56:29;9.00;;;1.10;;
41705;SDS011;27385;51.096;17.190;2023-04-03T05:59:00;11.70;;;1.10;;
41705;SDS011;27385;51.096;17.190;2023-04-03T06:01:31;14.50;;;1.00;;
41705;SDS011;27385;51.096;17.190;2023-04-03T06:04:03;12.20;;;1.50;;
41705;SDS011;27385;51.096;17.190;2023-04-03T06:09:25;15.50;;;2.30;;
41705;SDS011;27385;51.096;17.190;2023-04-03T06:11:57;9.90;;;1.30;;
41705;SDS011;27385;51.096;17.190;2023-04-03T06:14:28;8.70;;;1.30;;
41705;SDS011;27385;51.096;17.190;2023-04-03T06:16:59;13.70;;;1.50;;
41705;SDS011;27385;51.096;17.190;2023-04-03T06:19:30;9.30;;;1.20;;
41705;SDS011;27385;51.096;17.190;2023-04-03T06:22:01;7.80;;;1.10;;
41705;SDS011;27385;51.096;17.190;2023-04-03T06:24:32;11.40;;;1.40;;
41705;SDS011;27385;51.096;17.190;2023-04-03T06:27:03;14.60;;;2.50;;
41705;SDS011;27385;51.096;17.190;2023-04-03T06:29:36;11.60;;;1.50;;
41705;SDS011;27385;51.096;17.190;2023-04-03T06:32:07;8.50;;;1.50;;
41705;SDS011;27385;51.096;17.190;2023-04-03T06:34:37;13.10;;;1.30;;
41705;SDS011;27385;51.096;17.190;2023-04-03T06:37:11;11.70;;;1.80;;
41705;SDS011;27385;51.096;17.190;2023-04-03T06:39:45;14.50;;;1.80;;
41705;SDS011;27385;51.096;17.190;2023-04-03T06:42:16;9.90;;;1.30;;
41705;SDS011;27385;51.096;17.190;2023-04-03T06:44:47;10.90;;;1.30;;
41705;SDS011;27385;51.096;17.190;2023-04-03T06:47:18;8.00;;;1.10;;
41705;SDS011;27385;51.096;17.190;2023-04-03T06:49:49;11.50;;;1.40;;
41705;SDS011;27385;51.096;17.190;2023-04-03T06:52:20;10.50;;;1.30;;
41705;SDS011;27385;51.096;17.190;2023-04-03T06:54:51;12.00;;;1.40;;
41705;SDS011;27385;51.096;17.190;2023-04-03T06:57:24;13.00;;;1.50;;
41705;SDS011;27385;51.096;17.190;2023-04-03T06:59:55;6.30;;;1.10;;
41705;SDS011;27385;51.096;17.190;2023-04-03T07:02:26;10.50;;;2.20;;
41705;SDS011;27385;51.096;17.190;2023-04-03T07:04:57;16.50;;;1.70;;
41705;SDS011;27385;51.096;17.190;2023-04-03T07:07:28;9.40;;;1.40;;
41705;SDS011;27385;51.096;17.190;2023-04-03T07:10:00;9.70;;;1.20;;
41705;SDS011;27385;51.096;17.190;2023-04-03T07:12:31;8.40;;;1.50;;
41705;SDS011;27385;51.096;17.190;2023-04-03T07:15:03;12.80;;;3.10;;
41705;SDS011;27385;51.096;17.190;2023-04-03T07:17:35;9.10;;;1.40;;
41705;SDS011;27385;51.096;17.190;2023-04-03T07:20:06;8.00;;;1.30;;
41705;SDS011;27385;51.096;17.190;2023-04-03T07:22:38;6.30;;;1.40;;
41705;SDS011;27385;51.096;17.190;2023-04-03T07:25:09;5.50;;;1.10;;
41705;SDS011;27385;51.096;17.190;2023-04-03T07:27:40;9.50;;;1.30;;
41705;SDS011;27385;51.096;17.190;2023-04-03T07:30:12;8.50;;;1.30;;
41705;SDS011;27385;51.096;17.190;2023-04-03T07:32:43;10.10;;;1.20;;
41705;SDS011;27385;51.096;17.190;2023-04-03T07:35:15;8.40;;;1.10;;
41705;SDS011;27385;51.096;17.190;2023-04-03T07:37:46;6.00;;;1.30;;
41705;SDS011;27385;51.096;17.190;2023-04-03T07:40:17;8.10;;;1.60;;
41705;SDS011;27385;51.096;17.190;2023-04-03T07:42:48;5.60;;;0.90;;
41705;SDS011;27385;51.096;17.190;2023-04-03T07:45:20;9.40;;;1.10;;
41705;SDS011;27385;51.096;17.190;2023-04-03T07:47:51;5.90;;;1.00;;
41705;SDS011;27385;51.096;17.190;2023-04-03T07:50:22;6.90;;;1.00;;
41705;SDS011;27385;51.096;17.190;2023-04-03T07:52:53;14.50;;;1.50;;
41705;SDS011;27385;51.096;17.190;2023-04-03T07:55:25;7.00;;;1.00;;
41705;SDS011;27385;51.096;17.190;2023-04-03T07:57:56;6.50;;;0.80;;
41705;SDS011;27385;51.096;17.190;2023-04-03T08:00:27;5.20;;;0.70;;
41705;SDS011;27385;51.096;17.190;2023-04-03T08:02:58;10.40;;;1.30;;
41705;SDS011;27385;51.096;17.190;2023-04-03T08:05:29;8.50;;;1.40;;
41705;SDS011;27385;51.096;17.190;2023-04-03T08:08:00;6.80;;;1.20;;
41705;SDS011;27385;51.096;17.190;2023-04-03T08:10:31;10.60;;;1.40;;
41705;SDS011;27385;51.096;17.190;2023-04-03T08:13:03;7.00;;;1.20;;
41705;SDS011;27385;51.096;17.190;2023-04-03T08:15:34;9.10;;;1.40;;
41705;SDS011;27385;51.096;17.190;2023-04-03T08:18:05;17.70;;;1.70;;
41705;SDS011;27385;51.096;17.190;2023-04-03T08:20:37;9.70;;;1.30;;
41705;SDS011;27385;51.096;17.190;2023-04-03T08:23:08;7.40;;;1.20;;
41705;SDS011;27385;51.096;17.190;2023-04-03T08:25:40;9.50;;;1.70;;
41705;SDS011;27385;51.096;17.190;2023-04-03T08:28:11;9.10;;;1.40;;
41705;SDS011;27385;51.096;17.190;2023-04-03T08:30:42;7.60;;;1.00;;
41705;SDS011;27385;51.096;17.190;2023-04-03T08:33:13;8.60;;;0.90;;
41705;SDS011;27385;51.096;17.190;2023-04-03T08:35:44;6.20;;;1.20;;
41705;SDS011;27385;51.096;17.190;2023-04-03T08:38:15;5.50;;;1.00;;
41705;SDS011;27385;51.096;17.190;2023-04-03T08:40:46;8.40;;;1.00;;
41705;SDS011;27385;51.096;17.190;2023-04-03T08:43:30;5.30;;;0.80;;
41705;SDS011;27385;51.096;17.190;2023-04-03T08:46:10;7.30;;;0.90;;
41705;SDS011;27385;51.096;17.190;2023-04-03T08:48:43;5.20;;;0.80;;
41705;SDS011;27385;51.096;17.190;2023-04-03T08:51:15;5.70;;;0.80;;
41705;SDS011;27385;51.096;17.190;2023-04-03T08:53:52;11.00;;;1.00;;
41705;SDS011;27385;51.096;17.190;2023-04-03T08:56:28;5.20;;;0.70;;
41705;SDS011;27385;51.096;17.190;2023-04-03T08:59:03;6.60;;;0.90;;
41705;SDS011;27385;51.096;17.190;2023-04-03T09:01:39;5.30;;;0.70;;
41705;SDS011;27385;51.096;17.190;2023-04-03T09:04:11;7.50;;;0.90;;
41705;SDS011;27385;51.096;17.190;2023-04-03T09:06:44;5.20;;;0.50;;
41705;SDS011;27385;51.096;17.190;2023-04-03T09:09:23;7.20;;;0.90;;
41705;SDS011;27385;51.096;17.190;2023-04-03T09:14:38;5.00;;;0.60;;
41705;SDS011;27385;51.096;17.190;2023-04-03T09:17:14;3.70;;;0.70;;
41705;SDS011;27385;51.096;17.190;2023-04-03T09:19:53;4.50;;;0.60;;
41705;SDS011;27385;51.096;17.190;2023-04-03T09:22:28;9.70;;;0.80;;
41705;SDS011;27385;51.096;17.190;2023-04-03T09:25:05;6.10;;;0.60;;
41705;SDS011;27385;51.096;17.190;2023-04-03T09:27:42;4.20;;;0.70;;
41705;SDS011;27385;51.096;17.190;2023-04-03T09:30:14;5.80;;;0.70;;
41705;SDS011;27385;51.096;17.190;2023-04-03T09:32:47;5.00;;;0.70;;
41705;SDS011;27385;51.096;17.190;2023-04-03T09:35:21;5.00;;;0.60;;
41705;SDS011;27385;51.096;17.190;2023-04-03T09:37:57;4.10;;;0.70;;
41705;SDS011;27385;51.096;17.190;2023-04-03T09:40:33;5.40;;;0.70;;
41705;SDS011;27385;51.096;17.190;2023-04-03T09:43:21;5.40;;;0.70;;
41705;SDS011;27385;51.096;17.190;2023-04-03T09:45:54;4.30;;;0.70;;
41705;SDS011;27385;51.096;17.190;2023-04-03T09:51:20;6.00;;;0.90;;
41705;SDS011;27385;51.096;17.190;2023-04-03T09:53:56;5.10;;;0.60;;
41705;SDS011;27385;51.096;17.190;2023-04-03T09:56:28;5.80;;;0.90;;
41705;SDS011;27385;51.096;17.190;2023-04-03T09:59:13;5.80;;;1.20;;
41705;SDS011;27385;51.096;17.190;2023-04-03T10:01:55;7.50;;;0.70;;
41705;SDS011;27385;51.096;17.190;2023-04-03T10:04:36;5.00;;;0.60;;
41705;SDS011;27385;51.096;17.190;2023-04-03T10:07:28;2.60;;;0.50;;
41705;SDS011;27385;51.096;17.190;2023-04-03T10:10:03;3.40;;;0.70;;
41705;SDS011;27385;51.096;17.190;2023-04-03T10:12:48;6.90;;;1.00;;
41705;SDS011;27385;51.096;17.190;2023-04-03T10:15:31;4.80;;;0.70;;
41705;SDS011;27385;51.096;17.190;2023-04-03T10:18:26;9.80;;;0.80;;
41705;SDS011;27385;51.096;17.190;2023-04-03T10:21:04;4.50;;;0.70;;
41705;SDS011;27385;51.096;17.190;2023-04-03T10:23:40;5.30;;;0.80;;
41705;SDS011;27385;51.096;17.190;2023-04-03T10:26:16;5.70;;;0.80;;
41705;SDS011;27385;51.096;17.190;2023-04-03T10:29:00;8.80;;;0.90;;
41705;SDS011;27385;51.096;17.190;2023-04-03T10:31:40;5.70;;;1.10;;
41705;SDS011;27385;51.096;17.190;2023-04-03T10:34:20;5.80;;;0.50;;
41705;SDS011;27385;51.096;17.190;2023-04-03T10:36:54;6.20;;;0.80;;
41705;SDS011;27385;51.096;17.190;2023-04-03T10:39:30;7.10;;;0.70;;
41705;SDS011;27385;51.096;17.190;2023-04-03T10:42:10;3.10;;;0.50;;
41705;SDS011;27385;51.096;17.190;2023-04-03T10:44:54;6.20;;;0.60;;
41705;SDS011;27385;51.096;17.190;2023-04-03T10:47:50;6.50;;;0.80;;
41705;SDS011;27385;51.096;17.190;2023-04-03T10:50:33;5.50;;;0.70;;
41705;SDS011;27385;51.096;17.190;2023-04-03T10:53:14;7.70;;;0.70;;
41705;SDS011;27385;51.096;17.190;2023-04-03T13:27:32;4.10;;;0.70;;
41705;SDS011;27385;51.096;17.190;2023-04-03T13:30:05;6.30;;;0.70;;
41705;SDS011;27385;51.096;17.190;2023-04-03T13:32:50;4.90;;;0.70;;
41705;SDS011;27385;51.096;17.190;2023-04-03T13:35:26;3.00;;;0.60;;
41705;SDS011;27385;51.096;17.190;2023-04-03T13:38:01;5.30;;;0.60;;
41705;SDS011;27385;51.096;17.190;2023-04-03T13:40:47;6.20;;;0.80;;
41705;SDS011;27385;51.096;17.190;2023-04-03T13:43:21;6.90;;;1.00;;
41705;SDS011;27385;51.096;17.190;2023-04-03T13:46:01;4.00;;;0.70;;
41705;SDS011;27385;51.096;17.190;2023-04-03T13:51:17;3.10;;;0.70;;
41705;SDS011;27385;51.096;17.190;2023-04-03T13:53:52;3.10;;;1.00;;
41705;SDS011;27385;51.096;17.190;2023-04-03T13:56:29;7.30;;;1.40;;
41705;SDS011;27385;51.096;17.190;2023-04-03T13:59:20;13.20;;;3.10;;
41705;SDS011;27385;51.096;17.190;2023-04-03T14:01:54;14.50;;;2.80;;
41705;SDS011;27385;51.096;17.190;2023-04-03T14:04:47;9.10;;;2.20;;
41705;SDS011;27385;51.096;17.190;2023-04-03T14:59:28;12.30;;;2.10;;
41705;SDS011;27385;51.096;17.190;2023-04-03T15:02:01;7.50;;;1.10;;
41705;SDS011;27385;51.096;17.190;2023-04-03T15:04:46;8.30;;;1.70;;
41705;SDS011;27385;51.096;17.190;2023-04-03T15:07:17;12.60;;;1.90;;
41705;SDS011;27385;51.096;17.190;2023-04-03T15:09:48;7.30;;;1.50;;
41705;SDS011;27385;51.096;17.190;2023-04-03T15:12:19;9.80;;;2.10;;
41705;SDS011;27385;51.096;17.190;2023-04-03T15:14:50;9.00;;;1.80;;
41705;SDS011;27385;51.096;17.190;2023-04-03T15:17:21;8.80;;;1.30;;
41705;SDS011;27385;51.096;17.190;2023-04-03T15:19:52;7.20;;;1.20;;
41705;SDS011;27385;51.096;17.190;2023-04-03T15:22:23;9.40;;;1.80;;
41705;SDS011;27385;51.096;17.190;2023-04-03T15:24:55;9.70;;;2.00;;
41705;SDS011;27385;51.096;17.190;2023-04-03T15:27:26;9.40;;;1.60;;
41705;SDS011;27385;51.096;17.190;2023-04-03T15:29:58;5.40;;;1.10;;
41705;SDS011;27385;51.096;17.190;2023-04-03T15:32:30;9.10;;;1.40;;
41705;SDS011;27385;51.096;17.190;2023-04-03T15:35:01;8.50;;;1.40;;
41705;SDS011;27385;51.096;17.190;2023-04-03T15:37:33;10.20;;;1.80;;
41705;SDS011;27385;51.096;17.190;2023-04-03T15:40:05;5.20;;;1.20;;
41705;SDS011;27385;51.096;17.190;2023-04-03T15:42:37;14.10;;;2.80;;
41705;SDS011;27385;51.096;17.190;2023-04-03T15:45:09;9.80;;;1.80;;
41705;SDS011;27385;51.096;17.190;2023-04-03T15:47:40;11.80;;;1.70;;
41705;SDS011;27385;51.096;17.190;2023-04-03T15:50:12;10.40;;;1.20;;
41705;SDS011;27385;51.096;17.190;2023-04-03T15:52:43;9.40;;;1.50;;
41705;SDS011;27385;51.096;17.190;2023-04-03T15:55:14;12.20;;;2.00;;
41705;SDS011;27385;51.096;17.190;2023-04-03T15:57:45;14.60;;;2.30;;
41705;SDS011;27385;51.096;17.190;2023-04-03T16:03:09;9.80;;;1.70;;
41705;SDS011;27385;51.096;17.190;2023-04-03T16:05:44;7.60;;;1.60;;
41705;SDS011;27385;51.096;17.190;2023-04-03T16:08:15;7.50;;;1.20;;
41705;SDS011;27385;51.096;17.190;2023-04-03T16:10:46;10.00;;;1.50;;
41705;SDS011;27385;51.096;17.190;2023-04-03T16:13:17;7.20;;;1.00;;
41705;SDS011;27385;51.096;17.190;2023-04-03T16:15:48;5.50;;;0.80;;
41705;SDS011;27385;51.096;17.190;2023-04-03T16:18:19;7.90;;;1.30;;
41705;SDS011;27385;51.096;17.190;2023-04-03T16:20:50;8.80;;;1.00;;
41705;SDS011;27385;51.096;17.190;2023-04-03T16:23:21;6.30;;;1.10;;
41705;SDS011;27385;51.096;17.190;2023-04-03T16:25:53;7.90;;;1.20;;
41705;SDS011;27385;51.096;17.190;2023-04-03T16:28:24;9.70;;;1.60;;
41705;SDS011;27385;51.096;17.190;2023-04-03T16:30:56;7.90;;;1.80;;
41705;SDS011;27385;51.096;17.190;2023-04-03T16:33:29;7.10;;;1.40;;
41705;SDS011;27385;51.096;17.190;2023-04-03T16:36:00;10.60;;;1.70;;
41705;SDS011;27385;51.096;17.190;2023-04-03T16:38:35;12.30;;;1.70;;
41705;SDS011;27385;51.096;17.190;2023-04-03T16:41:06;11.50;;;1.70;;
41705;SDS011;27385;51.096;17.190;2023-04-03T16:43:37;40.70;;;17.50;;
41705;SDS011;27385;51.096;17.190;2023-04-03T16:46:09;25.10;;;6.70;;
41705;SDS011;27385;51.096;17.190;2023-04-03T16:48:40;17.90;;;4.20;;
41705;SDS011;27385;51.096;17.190;2023-04-03T16:51:12;17.50;;;2.70;;
41705;SDS011;27385;51.096;17.190;2023-04-03T16:53:43;12.50;;;2.80;;
41705;SDS011;27385;51.096;17.190;2023-04-03T16:56:15;20.90;;;4.60;;
41705;SDS011;27385;51.096;17.190;2023-04-03T16:58:46;9.90;;;1.80;;
41705;SDS011;27385;51.096;17.190;2023-04-03T17:01:18;9.50;;;2.00;;
41705;SDS011;27385;51.096;17.190;2023-04-03T17:03:51;5.00;;;1.10;;
41705;SDS011;27385;51.096;17.190;2023-04-03T17:06:22;9.80;;;1.40;;
41705;SDS011;27385;51.096;17.190;2023-04-03T17:08:54;8.20;;;1.80;;
41705;SDS011;27385;51.096;17.190;2023-04-03T17:11:25;10.50;;;2.00;;
41705;SDS011;27385;51.096;17.190;2023-04-03T17:13:57;9.90;;;1.90;;
41705;SDS011;27385;51.096;17.190;2023-04-03T17:16:28;13.60;;;5.10;;
41705;SDS011;27385;51.096;17.190;2023-04-03T17:19:01;14.30;;;4.60;;
41705;SDS011;27385;51.096;17.190;2023-04-03T17:21:33;12.40;;;3.00;;
41705;SDS011;27385;51.096;17.190;2023-04-03T17:24:08;16.30;;;4.80;;
41705;SDS011;27385;51.096;17.190;2023-04-03T17:26:42;15.20;;;5.60;;
41705;SDS011;27385;51.096;17.190;2023-04-03T17:29:13;15.90;;;4.80;;
41705;SDS011;27385;51.096;17.190;2023-04-03T17:31:45;11.60;;;2.00;;
41705;SDS011;27385;51.096;17.190;2023-04-03T17:34:16;12.30;;;3.10;;
41705;SDS011;27385;51.096;17.190;2023-04-03T17:36:47;17.60;;;4.70;;
41705;SDS011;27385;51.096;17.190;2023-04-03T17:39:19;16.60;;;2.80;;
41705;SDS011;27385;51.096;17.190;2023-04-03T17:41:49;11.70;;;2.30;;
41705;SDS011;27385;51.096;17.190;2023-04-03T17:44:21;12.10;;;2.50;;
41705;SDS011;27385;51.096;17.190;2023-04-03T17:46:53;9.80;;;2.60;;
41705;SDS011;27385;51.096;17.190;2023-04-03T17:49:24;12.90;;;2.80;;
41705;SDS011;27385;51.096;17.190;2023-04-03T17:51:55;15.80;;;4.20;;
41705;SDS011;27385;51.096;17.190;2023-04-03T17:54:26;14.20;;;3.80;;
41705;SDS011;27385;51.096;17.190;2023-04-03T17:56:57;23.80;;;9.60;;
41705;SDS011;27385;51.096;17.190;2023-04-03T17:59:30;29.40;;;11.10;;
41705;SDS011;27385;51.096;17.190;2023-04-03T18:02:02;29.90;;;13.40;;
41705;SDS011;27385;51.096;17.190;2023-04-03T18:05:56;12.70;;;3.30;;
41705;SDS011;27385;51.096;17.190;2023-04-03T18:08:31;13.50;;;3.90;;
41705;SDS011;27385;51.096;17.190;2023-04-03T18:11:05;11.50;;;4.20;;
41705;SDS011;27385;51.096;17.190;2023-04-03T18:13:37;16.00;;;5.10;;
41705;SDS011;27385;51.096;17.190;2023-04-03T18:16:09;24.40;;;11.80;;
41705;SDS011;27385;51.096;17.190;2023-04-03T18:18:42;33.80;;;15.00;;
41705;SDS011;27385;51.096;17.190;2023-04-03T18:21:13;35.10;;;16.20;;
41705;SDS011;27385;51.096;17.190;2023-04-03T18:23:46;27.50;;;10.70;;
41705;SDS011;27385;51.096;17.190;2023-04-03T18:26:20;32.40;;;16.70;;
41705;SDS011;27385;51.096;17.190;2023-04-03T18:28:55;27.00;;;14.40;;
41705;SDS011;27385;51.096;17.190;2023-04-03T18:31:29;27.80;;;13.30;;
41705;SDS011;27385;51.096;17.190;2023-04-03T18:34:02;18.70;;;6.40;;
41705;SDS011;27385;51.096;17.190;2023-04-03T18:36:33;17.00;;;6.10;;
41705;SDS011;27385;51.096;17.190;2023-04-03T18:39:04;17.20;;;4.10;;
41705;SDS011;27385;51.096;17.190;2023-04-03T18:41:36;20.20;;;4.50;;
41705;SDS011;27385;51.096;17.190;2023-04-03T18:44:07;18.80;;;4.30;;
41705;SDS011;27385;51.096;17.190;2023-04-03T18:46:41;14.50;;;4.20;;